CheckWX is a tool to help pilots better visualize weather data.  It is not intended as a substitute for an official pre-flight weather briefing.

03:15:11 UTC

SCEL METAR
Comodoro Arturo Merino Benítez International Airport
Santiago, Chile
Current

15 mins ago

SCEL 290300Z 16006KT CAVOK 21/11 Q1015 NOSIG
Observed
Feb-29 @ 03:00 UTC
Wind
  • 160° at 6 KTS
Visibility
10,000+ meters
Flight Rules
VFR
Cloud Levels
  • Clear skies
Temperature
21°C / 70°F
Dewpoint
11°C / 52°F
Humidity
53%
Altimeter
29.97" Hg
Pressure
1014.92 hPa
Previous

1 hour ago

SCEL 290200Z 16007KT CAVOK 22/12 Q1016 NOSIG
Observed
Feb-29 @ 02:00 UTC
Wind
  • 160° at 7 KTS
Visibility
10,000+ meters
Flight Rules
VFR
Cloud Levels
  • Clear skies
Temperature
22°C / 72°F
Dewpoint
12°C / 54°F
Humidity
53%
Altimeter
30" Hg
Pressure
1015.92 hPa
Previous

2 hours ago

SCEL 290100Z 15009KT CAVOK 22/12 Q1015 NOSIG
Observed
Feb-29 @ 01:00 UTC
Wind
  • 150° at 9 KTS
Visibility
10,000+ meters
Flight Rules
VFR
Cloud Levels
  • Clear skies
Temperature
22°C / 72°F
Dewpoint
12°C / 54°F
Humidity
53%
Altimeter
29.97" Hg
Pressure
1014.92 hPa